Time;durP1;ratioP1;P1;durP2;ratioP2;P2;SDS_P1;SDS_P2;PMS_P1;PMS_P2;Temp;Humidity;BMP_temperature;BMP_pressure;BME280_temperature;BME280_humidity;BME280_pressure;Samples;Min_cycle;Max_cycle;Signal;HPM_P1;HPM_P2
2022/07/05 00:01:31;;;;;;;4.60;1.33;;;21.60;67.80;;;;;;4999772;28;20640;-67
2022/07/05 00:03:57;;;;;;;1.57;1.43;;;21.60;68.00;;;;;;5011251;28;20696;-66
2022/07/05 00:06:24;;;;;;;2.47;1.50;;;21.50;67.80;;;;;;5009918;28;20617;-67
2022/07/05 00:08:51;;;;;;;1.60;1.50;;;21.50;68.00;;;;;;5009839;28;20621;-66
2022/07/05 00:11:18;;;;;;;1.80;1.70;;;21.50;67.90;;;;;;5011848;28;20613;-65
2022/07/05 00:13:45;;;;;;;1.37;1.23;;;21.60;67.90;;;;;;5011432;28;20636;-66
2022/07/05 00:16:11;;;;;;;1.50;1.40;;;21.60;67.80;;;;;;5009577;28;20652;-65
2022/07/05 00:18:38;;;;;;;1.40;1.30;;;21.60;67.90;;;;;;5001296;28;21114;-66
2022/07/05 00:21:05;;;;;;;5.20;1.30;;;21.60;67.90;;;;;;4992556;28;20709;-66
2022/07/05 00:23:32;;;;;;;1.37;1.37;;;21.50;68.10;;;;;;5008882;28;20665;-66
2022/07/05 00:25:59;;;;;;;1.80;1.70;;;21.40;68.00;;;;;;5011020;28;20736;-66
2022/07/05 00:28:26;;;;;;;1.33;1.23;;;21.30;68.30;;;;;;4993599;28;20621;-67
2022/07/05 00:30:52;;;;;;;1.23;1.23;;;21.20;68.50;;;;;;5011533;28;20622;-67
2022/07/05 00:33:19;;;;;;;1.40;1.30;;;21.10;68.60;;;;;;5009159;28;21299;-67
2022/07/05 00:35:46;;;;;;;1.87;1.30;;;21.10;68.70;;;;;;5010077;28;20832;-67
2022/07/05 00:38:13;;;;;;;1.60;1.50;;;21.00;68.70;;;;;;5008113;28;20671;-67
2022/07/05 00:40:41;;;;;;;1.30;1.20;;;21.00;69.60;;;;;;5009742;28;20713;-66
2022/07/05 00:43:09;;;;;;;1.40;1.40;;;20.90;69.20;;;;;;5009266;28;21264;-66
2022/07/05 00:45:36;;;;;;;1.20;1.20;;;20.90;69.20;;;;;;5003351;28;20677;-67
2022/07/05 00:48:03;;;;;;;1.67;1.67;;;20.80;69.30;;;;;;5008664;28;21223;-66
2022/07/05 00:50:30;;;;;;;1.40;1.40;;;20.80;69.30;;;;;;5003858;28;21013;-66
2022/07/05 00:52:57;;;;;;;1.30;1.30;;;20.70;69.70;;;;;;5000630;28;20660;-67
2022/07/05 00:55:24;;;;;;;1.63;1.53;;;20.70;69.90;;;;;;5001942;28;20625;-67
2022/07/05 00:57:51;;;;;;;1.70;1.60;;;20.60;69.90;;;;;;5007861;28;20666;-66
2022/07/05 01:00:18;;;;;;;1.50;1.40;;;20.60;70.10;;;;;;5009311;28;20629;-67
2022/07/05 01:02:45;;;;;;;1.40;1.30;;;20.60;70.40;;;;;;5009072;28;21113;-67
2022/07/05 01:05:12;;;;;;;5.60;1.90;;;20.50;70.50;;;;;;5005317;28;20700;-64
2022/07/05 01:07:40;;;;;;;1.50;1.40;;;20.40;70.80;;;;;;4998728;28;20641;-67
2022/07/05 01:10:07;;;;;;;1.50;1.40;;;20.40;71.00;;;;;;5006661;28;21075;-66
2022/07/05 01:12:35;;;;;;;1.93;1.83;;;20.30;71.10;;;;;;5009294;28;20637;-66
2022/07/05 01:15:01;;;;;;;1.70;1.60;;;20.30;71.20;;;;;;5009098;28;20645;-67
2022/07/05 01:17:29;;;;;;;2.20;2.00;;;20.20;71.40;;;;;;5009932;28;20800;-67
2022/07/05 01:19:56;;;;;;;1.20;1.20;;;20.20;71.40;;;;;;5007505;28;20740;-66
2022/07/05 01:22:26;;;;;;;2.37;1.70;;;20.30;71.50;;;;;;5003524;28;21004;-67
2022/07/05 01:24:53;;;;;;;1.60;1.50;;;20.20;71.40;;;;;;5013021;28;20621;-66
2022/07/05 01:27:21;;;;;;;1.60;1.50;;;20.20;71.60;;;;;;5013567;28;20609;-67
2022/07/05 01:29:48;;;;;;;2.00;1.90;;;20.10;72.50;;;;;;5014050;28;20621;-66
2022/07/05 01:32:15;;;;;;;1.50;1.40;;;20.00;72.10;;;;;;5013363;28;20638;-65
2022/07/05 01:34:42;;;;;;;1.20;1.20;;;20.10;72.70;;;;;;5013772;28;21192;-66
2022/07/05 01:37:10;;;;;;;1.60;1.50;;;20.00;72.30;;;;;;5011717;28;21236;-66
2022/07/05 01:39:37;;;;;;;1.40;1.40;;;19.90;72.70;;;;;;5010400;28;20653;-66
2022/07/05 01:42:05;;;;;;;2.00;1.60;;;19.80;73.00;;;;;;5011925;28;20656;-65
2022/07/05 01:44:32;;;;;;;1.33;1.23;;;19.80;73.00;;;;;;5013092;28;20593;-66
2022/07/05 01:47:05;;;;;;;1.70;1.60;;;19.80;73.10;;;;;;5012158;28;20637;-66
2022/07/05 01:49:36;;;;;;;1.40;1.40;;;19.70;73.30;;;;;;5000038;28;21197;-66
2022/07/05 01:52:09;;;;;;;1.87;1.70;;;19.70;73.70;;;;;;4993884;28;20622;-66
2022/07/05 01:54:37;;;;;;;2.30;1.70;;;19.60;73.80;;;;;;4993017;28;20614;-66
2022/07/05 01:57:05;;;;;;;1.83;1.67;;;19.60;74.00;;;;;;5004097;28;21267;-66
2022/07/05 01:59:36;;;;;;;1.80;1.70;;;19.60;74.30;;;;;;5012876;28;20752;-65
2022/07/05 02:02:05;;;;;;;1.70;1.60;;;19.50;74.40;;;;;;5011312;28;20978;-67
2022/07/05 02:04:33;;;;;;;5.27;1.63;;;19.50;74.80;;;;;;5012638;28;20693;-66
2022/07/05 02:07:05;;;;;;;1.53;1.43;;;19.40;75.00;;;;;;5011274;28;20633;-67
2022/07/05 02:09:32;;;;;;;1.20;1.20;;;19.40;75.20;;;;;;5011013;28;21115;-66
2022/07/05 02:11:59;;;;;;;1.50;1.40;;;19.40;75.20;;;;;;5012141;28;20639;-67
2022/07/05 02:14:26;;;;;;;1.77;1.67;;;19.40;75.60;;;;;;5012099;28;20617;-67
2022/07/05 02:16:52;;;;;;;1.73;1.47;;;19.30;75.70;;;;;;5012712;28;20644;-66
2022/07/05 02:19:19;;;;;;;1.30;1.30;;;19.30;76.00;;;;;;5012297;28;20653;-66
2022/07/05 02:21:46;;;;;;;1.70;1.60;;;19.30;76.20;;;;;;5011005;28;20644;-67
2022/07/05 02:24:13;;;;;;;1.80;1.70;;;19.30;76.40;;;;;;5011906;28;20673;-67
2022/07/05 02:26:40;;;;;;;2.90;1.90;;;19.20;76.80;;;;;;5011399;28;20637;-67
2022/07/05 02:29:07;;;;;;;1.63;1.50;;;19.10;77.20;;;;;;5011605;28;21038;-66
2022/07/05 02:31:34;;;;;;;2.20;2.00;;;19.20;77.40;;;;;;5011103;28;20637;-67
2022/07/05 02:34:01;;;;;;;1.60;1.60;;;19.20;77.30;;;;;;5011443;28;20652;-66
2022/07/05 02:36:27;;;;;;;1.73;1.63;;;19.10;77.70;;;;;;5010996;28;20633;-66
2022/07/05 02:38:54;;;;;;;1.90;1.80;;;19.10;77.90;;;;;;5012253;28;20751;-67
2022/07/05 02:41:21;;;;;;;1.93;1.80;;;19.10;78.10;;;;;;5010681;28;21010;-66
2022/07/05 02:43:48;;;;;;;1.90;1.80;;;19.20;78.30;;;;;;5010539;28;21055;-67
2022/07/05 02:46:15;;;;;;;1.70;1.60;;;19.20;78.40;;;;;;5008914;28;20633;-66
2022/07/05 02:48:42;;;;;;;4.50;2.00;;;19.20;78.50;;;;;;5003336;28;21207;-68
2022/07/05 02:51:09;;;;;;;1.63;1.53;;;19.20;78.80;;;;;;5010000;28;20598;-67
2022/07/05 02:53:36;;;;;;;2.27;1.97;;;19.20;79.10;;;;;;5011955;28;20653;-66
2022/07/05 02:56:03;;;;;;;1.90;1.80;;;19.20;79.30;;;;;;5012240;28;20712;-67
2022/07/05 02:58:29;;;;;;;1.60;1.50;;;19.10;79.50;;;;;;5012174;28;20752;-66
2022/07/05 03:00:56;;;;;;;1.57;1.47;;;19.00;80.00;;;;;;5010199;28;20633;-66
2022/07/05 03:03:23;;;;;;;1.70;1.60;;;19.00;80.20;;;;;;5001198;28;20657;-66
2022/07/05 03:05:50;;;;;;;1.70;1.60;;;19.00;80.30;;;;;;5010072;28;20600;-68
2022/07/05 03:08:17;;;;;;;1.50;1.50;;;19.00;80.60;;;;;;5012394;28;20637;-67
2022/07/05 03:10:44;;;;;;;1.80;1.70;;;18.90;80.80;;;;;;5011465;28;20625;-66
2022/07/05 03:13:11;;;;;;;1.90;1.70;;;18.90;81.10;;;;;;5010168;28;20657;-67
2022/07/05 03:15:37;;;;;;;2.10;2.00;;;18.80;81.40;;;;;;5011037;28;20633;-67
2022/07/05 03:18:04;;;;;;;1.97;1.87;;;18.90;81.70;;;;;;5009938;28;20641;-69
2022/07/05 03:20:31;;;;;;;2.00;1.87;;;18.80;81.80;;;;;;5009267;28;20929;-67
2022/07/05 03:22:58;;;;;;;1.93;1.90;;;18.90;81.90;;;;;;5010599;28;20671;-67
2022/07/05 03:25:25;;;;;;;1.93;1.83;;;18.90;82.20;;;;;;5010434;28;20633;-67
2022/07/05 03:27:52;;;;;;;1.93;1.83;;;18.80;82.20;;;;;;5010382;28;20629;-68
2022/07/05 03:30:19;;;;;;;2.10;2.00;;;18.90;82.30;;;;;;5010681;28;20626;-67
2022/07/05 03:32:45;;;;;;;3.63;1.57;;;18.90;82.50;;;;;;5010345;28;20667;-66
2022/07/05 03:35:14;;;;;;;2.70;1.70;;;18.90;82.50;;;;;;5011552;28;20617;-66
2022/07/05 03:37:41;;;;;;;1.90;1.80;;;18.90;82.70;;;;;;5008946;28;21175;-67
2022/07/05 03:40:09;;;;;;;1.70;1.60;;;18.90;82.70;;;;;;5009290;28;20661;-66
2022/07/05 03:42:35;;;;;;;2.00;1.67;;;18.90;82.70;;;;;;4995028;28;20661;-67
2022/07/05 03:45:03;;;;;;;4.20;2.00;;;19.00;82.70;;;;;;5000141;28;20644;-66
2022/07/05 03:47:30;;;;;;;2.00;1.90;;;19.00;82.30;;;;;;5009195;28;20621;-65
2022/07/05 03:49:57;;;;;;;1.63;1.60;;;19.00;82.60;;;;;;5006639;28;20725;-68
2022/07/05 03:52:24;;;;;;;2.30;1.80;;;19.00;82.70;;;;;;5010725;28;20872;-67
2022/07/05 03:54:52;;;;;;;1.50;1.50;;;19.00;82.80;;;;;;5010111;28;20637;-67
2022/07/05 03:57:20;;;;;;;2.00;1.90;;;19.10;82.60;;;;;;5009442;28;20990;-67
2022/07/05 03:59:47;;;;;;;2.17;1.90;;;19.30;82.10;;;;;;5008673;28;20672;-68
2022/07/05 04:02:14;;;;;;;1.87;1.80;;;19.40;81.60;;;;;;5008971;28;20635;-65
2022/07/05 04:04:41;;;;;;;1.80;1.70;;;19.50;81.30;;;;;;5003159;28;20741;-65
2022/07/05 04:07:07;;;;;;;2.40;1.70;;;19.50;81.10;;;;;;4998392;28;20680;-64
2022/07/05 04:09:34;;;;;;;5.03;2.10;;;19.60;81.00;;;;;;4995504;28;20633;-65
2022/07/05 04:12:01;;;;;;;1.73;1.63;;;19.60;80.60;;;;;;5010585;28;20621;-66
2022/07/05 04:14:28;;;;;;;1.90;1.80;;;19.80;80.50;;;;;;5009701;28;20637;-67
2022/07/05 04:16:55;;;;;;;1.80;1.70;;;19.90;79.90;;;;;;5009081;28;20647;-66
2022/07/05 04:19:22;;;;;;;2.83;1.80;;;20.10;80.20;;;;;;5009886;28;20751;-66
2022/07/05 04:21:49;;;;;;;1.87;1.80;;;20.30;79.00;;;;;;5008900;28;20652;-66
2022/07/05 04:24:15;;;;;;;3.47;2.17;;;20.50;78.20;;;;;;5008458;28;21035;-66
2022/07/05 04:26:42;;;;;;;1.70;1.60;;;20.70;77.70;;;;;;5009299;28;21173;-66
2022/07/05 04:29:09;;;;;;;2.17;1.80;;;20.90;77.30;;;;;;5010614;28;20621;-64
2022/07/05 04:31:36;;;;;;;2.80;1.60;;;21.10;76.80;;;;;;5009485;28;20637;-68
2022/07/05 04:34:03;;;;;;;2.00;1.90;;;21.20;76.20;;;;;;5000078;28;20672;-64
2022/07/05 04:36:30;;;;;;;1.80;1.70;;;21.50;76.60;;;;;;4991500;28;20606;-67
2022/07/05 04:38:57;;;;;;;3.67;2.00;;;21.60;75.60;;;;;;5010538;28;20995;-68
2022/07/05 04:41:24;;;;;;;3.53;1.53;;;21.70;75.00;;;;;;5001564;28;20641;-66
2022/07/05 04:43:51;;;;;;;2.20;2.03;;;21.80;74.80;;;;;;5009910;28;20653;-66
2022/07/05 04:46:17;;;;;;;2.10;1.90;;;21.90;74.70;;;;;;5008828;28;20646;-66
2022/07/05 04:48:44;;;;;;;2.10;2.00;;;21.90;74.50;;;;;;5000361;28;20637;-69
2022/07/05 04:51:11;;;;;;;2.63;2.20;;;21.90;74.50;;;;;;4994256;28;20646;-67
2022/07/05 04:53:38;;;;;;;2.40;2.23;;;22.10;74.60;;;;;;4990220;28;20650;-65
2022/07/05 04:56:05;;;;;;;2.17;1.97;;;22.20;74.10;;;;;;5000454;28;20641;-67
2022/07/05 04:58:33;;;;;;;2.07;1.93;;;22.50;73.50;;;;;;5014374;28;20660;-67
2022/07/05 05:01:00;;;;;;;4.20;2.00;;;22.80;72.60;;;23.30;nan;101017.25;5012012;28;21006;-67
2022/07/05 05:03:27;;;;;;;1.80;1.70;;;22.90;72.50;;;23.52;nan;101015.53;5008042;28;20659;-67
2022/07/05 05:05:54;;;;;;;2.23;1.83;;;23.00;72.20;;;23.73;nan;101024.44;5008253;28;20618;-67
2022/07/05 05:08:21;;;;;;;1.97;1.83;;;23.20;71.60;;;23.89;nan;101020.75;5012119;28;20640;-66
2022/07/05 05:10:48;;;;;;;3.23;1.70;;;23.40;70.80;;;23.91;nan;101022.19;5013168;28;20997;-66
2022/07/05 05:13:15;;;;;;;2.23;2.00;;;23.40;70.80;;;24.06;nan;101029.38;5011398;28;20665;-67
2022/07/05 05:15:42;;;;;;;4.43;2.23;;;23.50;70.80;;;24.15;nan;101022.91;5012973;28;20629;-66
2022/07/05 05:18:09;;;;;;;2.07;1.93;;;23.60;70.40;;;24.42;nan;101023.00;5012063;28;20638;-64
2022/07/05 05:20:36;;;;;;;2.67;1.90;;;23.90;70.20;;;24.71;nan;101019.34;5013113;28;21081;-67
2022/07/05 05:23:06;;;;;;;1.97;1.83;;;24.20;69.10;;;24.88;nan;101031.44;5010092;28;20669;-67
2022/07/05 05:25:34;;;;;;;1.73;1.73;;;24.40;68.40;;;25.06;nan;101029.13;5005805;28;21222;-68
2022/07/05 05:28:02;;;;;;;2.20;1.77;;;24.50;67.90;;;25.21;nan;101031.69;4999046;28;21154;-67
2022/07/05 05:30:29;;;;;;;1.70;1.60;;;24.70;67.50;;;25.37;nan;101028.69;4991751;28;20633;-67
2022/07/05 05:32:56;;;;;;;1.40;1.40;;;24.90;67.40;;;25.65;nan;101032.16;5008122;28;20672;-67
2022/07/05 05:35:23;;;;;;;1.90;1.80;;;25.20;67.00;;;25.78;nan;101031.41;5012572;28;20640;-67
2022/07/05 05:37:52;;;;;;;1.80;1.70;;;25.30;66.80;;;25.96;nan;101029.00;5012364;28;20641;-66
2022/07/05 05:40:21;;;;;;;5.70;1.77;;;25.50;66.60;;;26.20;nan;101033.81;5010363;28;20658;-67
2022/07/05 05:42:50;;;;;;;2.13;1.73;;;25.70;66.30;;;26.47;nan;101040.88;5003372;28;20671;-67
2022/07/05 05:45:17;;;;;;;1.97;1.87;;;26.00;65.70;;;26.67;nan;101031.03;5004752;28;20683;-67
2022/07/05 05:47:57;;;;;;;4.23;2.17;;;26.20;64.50;;;26.71;nan;101034.09;5011930;28;20637;-67
2022/07/05 05:50:32;;;;;;;1.93;1.83;;;26.20;64.30;;;26.76;nan;101037.03;5010816;28;20629;-66
2022/07/05 05:53:00;;;;;;;6.57;1.70;;;26.20;64.20;;;26.86;nan;101040.94;5012536;28;20668;-66
2022/07/05 05:55:30;;;;;;;1.83;1.73;;;26.40;64.30;;;26.98;nan;101049.19;5011847;28;20641;-67
2022/07/05 05:58:14;;;;;;;2.00;1.90;;;26.50;64.20;;;27.33;nan;101049.75;4995658;28;20633;-66
2022/07/05 06:00:43;;;;;;;1.97;1.70;;;26.80;63.90;;;27.66;nan;101047.84;5011528;28;20668;-67
2022/07/05 06:03:10;;;;;;;2.43;2.03;;;27.20;62.50;;;28.05;nan;101053.06;5011823;28;20660;-67
2022/07/05 06:05:37;;;;;;;2.40;2.20;;;27.60;61.70;;;28.27;nan;101050.88;5003711;28;20625;-67
2022/07/05 06:08:04;;;;;;;3.87;2.03;;;27.80;60.40;;;28.40;nan;101054.31;5011234;28;21262;-66
2022/07/05 06:10:33;;;;;;;2.17;1.97;;;28.00;59.70;;;28.59;nan;101054.41;5010785;28;20633;-65
2022/07/05 06:13:04;;;;;;;3.03;1.80;;;28.10;59.70;;;28.93;nan;101057.47;5012179;28;20660;-67
2022/07/05 06:15:31;;;;;;;1.93;1.80;;;28.40;59.20;;;29.29;nan;101055.91;5011880;28;20629;-67
2022/07/05 06:17:58;;;;;;;1.97;1.80;;;28.80;58.90;;;29.78;nan;101056.63;5010793;28;21014;-67
2022/07/05 06:20:29;;;;;;;1.80;1.70;;;29.30;57.50;;;30.12;nan;101057.03;4999259;28;20670;-67
2022/07/05 06:22:57;;;;;;;2.33;2.10;;;29.70;56.50;;;30.57;nan;101061.78;4991840;28;20673;-66
2022/07/05 06:25:25;;;;;;;3.33;1.80;;;30.20;55.80;;;30.81;nan;101061.81;4996475;28;20644;-67
2022/07/05 06:27:56;;;;;;;2.20;2.00;;;30.30;55.40;;;31.30;nan;101066.81;5011344;28;21022;-66
2022/07/05 06:30:25;;;;;;;4.17;1.83;;;30.80;54.00;;;31.67;nan;101068.19;5011436;28;20688;-66
2022/07/05 06:32:53;;;;;;;1.70;1.50;;;31.10;53.40;;;32.34;nan;101063.88;5010968;28;20665;-66
2022/07/05 06:35:21;;;;;;;3.03;2.00;;;31.80;53.00;;;32.77;nan;101074.09;5009508;28;20626;-67
2022/07/05 06:37:52;;;;;;;1.90;1.80;;;32.30;51.90;;;32.79;nan;101070.09;5001512;28;20641;-66
2022/07/05 06:40:26;;;;;;;1.40;1.40;;;32.40;51.20;;;33.82;nan;101079.47;5004489;28;20681;-68
2022/07/05 06:42:56;;;;;;;2.10;1.90;;;33.20;50.80;;;34.18;nan;101073.41;5000935;28;20668;-66
2022/07/05 06:45:23;;;;;;;3.10;2.07;;;33.80;49.60;;;34.64;nan;101067.38;5004790;28;21020;-66
2022/07/05 06:48:12;;;;;;;2.33;1.90;;;34.00;49.20;;;35.41;nan;101070.41;5004439;28;20629;-66
2022/07/05 06:50:42;;;;;;;3.90;1.70;;;34.70;48.60;;;36.51;nan;101080.06;5005821;28;20634;-66
2022/07/05 06:53:11;;;;;;;1.90;1.70;;;35.90;47.10;;;37.03;nan;101083.34;5003585;28;21065;-65
2022/07/05 06:55:44;;;;;;;3.37;1.97;;;36.50;46.20;;;37.44;nan;101081.34;5006827;28;20642;-66
2022/07/05 06:58:14;;;;;;;6.00;2.20;;;36.90;45.50;;;38.27;nan;101092.50;5012369;28;20636;-67
2022/07/05 07:00:43;;;;;;;3.40;1.90;;;37.70;44.40;;;38.07;nan;101090.66;5010578;28;20669;-68
2022/07/05 07:03:30;;;;;;;2.30;2.00;;;37.70;43.90;;;38.30;nan;101086.44;4998000;28;20659;-69
2022/07/05 07:06:18;;;;;;;3.13;2.00;;;37.70;44.20;;;39.44;nan;101088.50;5010305;28;20617;-66
2022/07/05 07:11:30;;;;;;;1.90;1.80;;;39.40;42.50;;;41.18;nan;101081.81;5009727;28;20624;-67
2022/07/05 07:13:57;;;;;;;4.33;2.00;;;40.40;41.70;;;41.18;nan;101081.81;5008253;28;21080;-65
2022/07/05 07:16:24;;;;;;;1.50;1.50;;;41.10;40.90;;;42.38;nan;101094.94;5006151;28;20646;-68
2022/07/05 07:18:52;;;;;;;1.67;1.63;;;41.70;40.30;;;42.91;nan;101097.78;5004231;28;20990;-67
2022/07/05 07:21:39;;;;;;;1.73;1.70;;;41.90;39.80;;;43.24;nan;101101.81;5010115;28;20625;-68
2022/07/05 07:24:07;;;;;;;2.10;1.90;;;42.50;38.90;;;43.99;nan;101101.59;5010157;28;21245;-67
2022/07/05 07:29:20;;;;;;;2.10;1.67;;;43.40;37.90;;;45.42;nan;101104.81;5010564;28;21210;-69
2022/07/05 07:31:47;;;;;;;1.90;1.80;;;44.30;37.20;;;45.80;nan;101100.88;5009823;28;20621;-67
2022/07/05 07:34:14;;;;;;;1.63;1.43;;;44.70;36.60;;;46.39;nan;101101.59;5009093;28;20666;-67
2022/07/05 07:36:42;;;;;;;5.77;1.60;;;45.40;36.10;;;46.72;nan;101116.25;4998361;28;20638;-66
2022/07/05 07:39:09;;;;;;;1.80;1.70;;;45.80;35.70;;;47.32;nan;101103.69;5008736;28;20625;-69
2022/07/05 07:41:36;;;;;;;1.80;1.80;;;46.40;36.30;;;47.82;nan;101115.22;5005267;28;20629;-65
2022/07/05 07:44:03;;;;;;;2.10;1.90;;;46.90;35.20;;;48.18;nan;101106.03;5003190;28;20659;-62
2022/07/05 07:46:30;;;;;;;3.60;1.50;;;47.20;35.50;;;48.65;nan;101114.50;4995559;28;20633;-65
2022/07/05 07:48:58;;;;;;;7.37;1.77;;;47.80;34.40;;;48.86;nan;101104.81;5008954;28;20642;-66
2022/07/05 07:51:25;;;;;;;1.77;1.67;;;47.90;34.20;;;48.54;nan;101110.66;5010111;28;20644;-64
2022/07/05 07:53:52;;;;;;;1.80;1.70;;;47.60;34.20;;;48.61;nan;101108.06;5010275;28;21249;-65
2022/07/05 07:56:30;;;;;;;1.63;1.43;;;47.80;34.20;;;48.43;nan;101107.56;5009319;28;20771;-66
2022/07/05 07:58:57;;;;;;;1.60;1.50;;;47.60;33.80;;;48.50;nan;101116.09;5009734;28;20625;-67
2022/07/05 08:01:24;;;;;;;1.70;1.60;;;47.60;33.50;;;48.45;nan;101113.59;5009709;28;20672;-64
2022/07/05 08:03:51;;;;;;;2.50;1.50;;;47.50;33.20;;;47.96;nan;101110.13;5008871;28;20665;-67
2022/07/05 08:06:18;;;;;;;1.77;1.67;;;47.20;33.10;;;48.06;nan;101104.09;5006669;28;20994;-65
2022/07/05 08:08:45;;;;;;;2.10;1.70;;;47.30;32.80;;;48.51;nan;101111.34;5003808;28;20629;-65
2022/07/05 08:11:14;;;;;;;4.93;1.63;;;47.60;32.70;;;48.43;nan;101107.56;5006500;28;20637;-67
2022/07/05 08:13:42;;;;;;;1.67;1.67;;;47.60;32.50;;;48.35;nan;101110.50;5008198;28;20664;-65
2022/07/05 08:16:10;;;;;;;1.30;1.30;;;47.60;32.40;;;48.63;nan;101106.56;5009244;28;20617;-65
2022/07/05 08:21:32;;;;;;;1.70;1.70;;;47.90;32.60;;;49.40;nan;101102.25;4998949;28;21053;-65
2022/07/05 08:24:05;;;;;;;1.73;1.70;;;48.60;32.40;;;49.49;nan;101096.53;4992682;28;20944;-66
2022/07/05 08:26:33;;;;;;;2.00;1.90;;;48.60;32.30;;;50.08;nan;101099.84;5008312;28;20629;-66
2022/07/05 08:29:02;;;;;;;1.70;1.70;;;49.20;32.10;;;50.51;nan;101106.31;5009608;28;20648;-65
2022/07/05 08:31:49;;;;;;;2.07;1.90;;;49.70;31.80;;;49.63;nan;101097.66;5010677;28;20900;-65
2022/07/05 08:34:19;;;;;;;1.60;1.60;;;49.70;31.40;;;49.84;nan;101100.13;5009789;28;20678;-67
2022/07/05 08:36:47;;;;;;;3.17;1.83;;;49.10;31.60;;;50.25;nan;101093.09;4993981;28;20641;-66
2022/07/05 08:39:15;;;;;;;2.20;1.80;;;49.50;31.40;;;50.65;nan;101101.81;4993886;28;20601;-66
2022/07/05 08:41:50;;;;;;;2.80;1.50;;;49.70;31.50;;;51.31;nan;101104.19;4991308;28;20644;-68
2022/07/05 08:44:22;;;;;;;1.80;1.60;;;50.40;30.80;;;51.38;nan;101095.16;5012650;28;21008;-66
2022/07/05 08:46:52;;;;;;;6.53;5.97;;;50.80;30.70;;;51.37;nan;101102.72;5011070;28;20625;-64
2022/07/05 08:49:28;;;;;;;17.23;15.63;;;50.60;30.40;;;51.68;nan;101087.66;5013667;28;20628;-65
2022/07/05 08:51:55;;;;;;;3.13;3.03;;;50.80;30.60;;;51.90;nan;101095.94;5001657;28;21010;-68
2022/07/05 08:54:24;;;;;;;3.50;1.80;;;51.10;30.50;;;51.67;nan;101084.06;5003888;28;21268;-67
2022/07/05 08:56:51;;;;;;;1.60;1.50;;;50.90;30.40;;;51.60;nan;101086.78;5000917;28;20986;-67
2022/07/05 08:59:37;;;;;;;1.70;1.53;;;50.80;30.40;;;51.72;nan;101086.53;5008672;28;20629;-67
2022/07/05 09:02:05;;;;;;;1.70;1.60;;;50.90;30.30;;;52.14;nan;101086.28;5012979;28;20694;-67
2022/07/05 09:04:37;;;;;;;2.00;1.90;;;51.20;30.30;;;53.05;nan;101082.88;5004367;28;21157;-67
2022/07/05 09:07:07;;;;;;;1.67;1.57;;;52.00;30.10;;;52.94;nan;101084.78;5001217;28;20621;-68
2022/07/05 09:09:43;;;;;;;1.93;1.80;;;52.20;29.90;;;52.98;nan;101077.25;5004088;28;20635;-68
2022/07/05 09:12:14;;;;;;;1.43;1.43;;;52.20;29.70;;;53.15;nan;101091.38;5009080;28;20616;-65
2022/07/05 09:14:54;;;;;;;1.60;1.50;;;52.60;29.60;;;52.76;nan;101081.03;5014027;28;20636;-66
2022/07/05 09:17:21;;;;;;;1.67;1.67;;;51.80;29.80;;;53.07;nan;101086.09;5004801;28;21211;-67
2022/07/05 09:20:10;;;;;;;1.80;1.80;;;52.20;29.60;;;51.76;nan;101073.47;5012006;28;20661;-66
2022/07/05 09:22:53;;;;;;;1.63;1.60;;;51.40;30.50;;;51.73;nan;101073.44;5012484;28;20671;-68
2022/07/05 09:25:24;;;;;;;2.60;1.50;;;50.90;29.90;;;52.59;nan;101069.31;5012841;28;20670;-66
2022/07/05 09:27:53;;;;;;;1.73;1.73;;;51.70;29.80;;;53.33;nan;101077.53;5011713;28;20643;-65
2022/07/05 09:30:36;;;;;;;1.83;1.80;;;52.50;29.80;;;53.13;nan;101073.41;5010253;28;20992;-68
2022/07/05 09:33:16;;;;;;;1.77;1.67;;;52.80;29.40;;;;;;5010883;28;21187;-62
2022/07/05 09:35:56;;;;;;;1.97;1.80;;;52.10;29.40;;;;;;5011631;28;20955;-67
2022/07/05 09:38:27;;;;;;;1.63;1.63;;;51.90;29.50;;;;;;5011557;28;20704;-66
2022/07/05 09:40:58;;;;;;;1.90;1.80;;;52.10;29.40;;;;;;5013159;28;21087;-67
2022/07/05 09:43:27;;;;;;;1.57;1.57;;;50.40;29.40;;;;;;5010898;28;20659;-66
2022/07/05 09:45:54;;;;;;;1.80;1.70;;;49.00;30.00;;;;;;5012617;28;20691;-66
2022/07/05 09:48:22;;;;;;;1.60;1.50;;;48.40;30.30;;;;;;5012429;28;20620;-68
2022/07/05 09:51:05;;;;;;;1.70;1.60;;;49.20;30.20;;;;;;5010813;28;20636;-66
2022/07/05 09:53:54;;;;;;;1.80;1.70;;;48.40;30.10;;;;;;5002479;28;20665;-66
2022/07/05 09:56:29;;;;;;;1.70;1.70;;;46.70;30.90;;;;;;5012377;28;20640;-66
2022/07/05 09:59:13;;;;;;;1.67;1.57;;;46.50;31.10;;;;;;5011268;28;20640;-66
2022/07/05 10:01:40;;;;;;;1.70;1.60;;;47.60;30.70;;;;;;5012279;28;21287;-67
2022/07/05 10:04:08;;;;;;;1.63;1.40;;;48.70;30.20;;;;;;5013022;28;20668;-66
2022/07/05 10:06:36;;;;;;;1.60;1.60;;;49.70;30.00;;;;;;5007349;28;20628;-67
2022/07/05 10:09:03;;;;;;;1.50;1.40;;;49.50;30.00;;;;;;5011782;28;21049;-67
2022/07/05 10:11:31;;;;;;;1.57;1.47;;;49.20;30.00;;;;;;5012564;28;20628;-70
2022/07/05 10:13:58;;;;;;;1.57;1.57;;;48.60;30.00;;;;;;5006560;28;21303;-66
2022/07/05 10:16:25;;;;;;;3.10;1.47;;;46.00;30.60;;;;;;5011956;28;20640;-66
2022/07/05 10:18:55;;;;;;;1.70;1.57;;;42.30;32.20;;;;;;5011862;28;20659;-67
2022/07/05 10:21:25;;;;;;;2.03;1.30;;;40.90;33.50;;;;;;5012484;28;21258;-69
2022/07/05 10:23:55;;;;;;;1.57;1.47;;;40.00;34.10;;;;;;5011110;28;20665;-66
2022/07/05 10:26:23;;;;;;;11.73;1.60;;;39.40;34.60;;;;;;5013524;28;20617;-66
2022/07/05 10:28:52;;;;;;;1.70;1.70;;;38.70;35.10;;;;;;5013416;28;21227;-67
2022/07/05 10:31:29;;;;;;;1.60;1.40;;;37.90;35.80;;;;;;5011631;28;20633;-67
2022/07/05 10:33:57;;;;;;;1.50;1.40;;;36.90;36.20;;;;;;5011762;28;20763;-66
2022/07/05 10:36:24;;;;;;;2.30;1.30;;;36.20;36.90;;;;;;5010424;28;20720;-66
2022/07/05 10:38:52;;;;;;;1.60;1.50;;;35.90;37.10;;;;;;5012654;28;20704;-66
2022/07/05 10:41:22;;;;;;;1.80;1.70;;;35.70;37.60;;;;;;5010994;28;20657;-66
2022/07/05 10:43:56;;;;;;;1.53;1.43;;;35.30;37.70;;;;;;5010958;28;20642;-67
2022/07/05 10:46:41;;;;;;;1.30;1.30;;;34.90;37.90;;;;;;5011212;28;20644;-68
2022/07/05 10:49:17;;;;;;;1.33;1.23;;;34.60;38.00;;;;;;5011855;28;20667;-68
2022/07/05 10:51:44;;;;;;;1.27;1.27;;;34.20;37.90;;;;;;5011369;28;20639;-66
2022/07/05 10:54:19;;;;;;;3.77;2.07;;;33.90;38.10;;;;;;5010953;28;20656;-64
2022/07/05 10:57:21;;;;;;;2.20;1.13;;;33.40;39.50;;;;;;5010791;28;20641;-66
2022/07/05 11:00:07;;;;;;;1.77;1.67;;;32.90;39.00;;;;;;5010861;28;20616;-67
2022/07/05 11:02:34;;;;;;;1.63;1.53;;;32.60;39.90;;;;;;5010038;28;21071;-66
2022/07/05 11:05:02;;;;;;;1.87;1.33;;;32.70;39.90;;;;;;5011510;28;20712;-66
2022/07/05 11:07:57;;;;;;;1.37;1.27;;;32.10;39.50;;;;;;5010743;28;20647;-66
2022/07/05 11:10:23;;;;;;;2.60;1.30;;;31.50;40.30;;;;;;5011325;28;20601;-67
2022/07/05 11:12:50;;;;;;;1.50;1.40;;;31.00;40.70;;;;;;5010989;28;20703;-66
2022/07/05 11:15:17;;;;;;;1.47;1.37;;;30.70;40.90;;;;;;5011821;28;20720;-65
2022/07/05 11:17:44;;;;;;;1.43;1.43;;;30.60;40.80;;;;;;5009768;28;20686;-66
2022/07/05 11:20:32;;;;;;;2.20;1.50;;;30.50;41.50;;;;;;5004388;28;20652;-66
2022/07/05 11:23:10;;;;;;;1.80;1.37;;;30.70;41.00;;;;;;5011802;28;20649;-66
2022/07/05 11:25:44;;;;;;;1.57;1.50;;;30.70;40.50;;;;;;5010502;28;21259;-65
2022/07/05 11:28:19;;;;;;;1.10;1.10;;;30.80;40.50;;;;;;5010600;28;21227;-64
2022/07/05 11:30:48;;;;;;;1.30;1.20;;;30.80;40.50;;;;;;5010291;28;20633;-69
2022/07/05 11:33:33;;;;;;;1.60;1.50;;;30.60;40.50;;;;;;5007919;28;21072;-66
2022/07/05 11:36:03;;;;;;;1.40;1.40;;;30.40;40.40;;;;;;5010335;28;20612;-65
2022/07/05 11:38:31;;;;;;;4.93;1.53;;;30.10;41.00;;;;;;5011078;28;20640;-66
2022/07/05 11:41:17;;;;;;;1.60;1.50;;;30.00;40.90;;;;;;5011086;28;20649;-66
2022/07/05 11:43:56;;;;;;;1.30;1.30;;;29.70;40.50;;;;;;5009080;28;20667;-66
2022/07/05 11:46:23;;;;;;;1.13;1.13;;;29.80;41.50;;;;;;5003262;28;20621;-66
2022/07/05 11:49:10;;;;;;;5.40;1.40;;;30.00;41.30;;;;;;5010493;28;20633;-68
2022/07/05 11:51:37;;;;;;;2.60;1.30;;;30.20;40.80;;;;;;5010605;28;20609;-66
2022/07/05 11:54:08;;;;;;;1.50;1.40;;;30.10;39.30;;;;;;5009020;28;20696;-64
2022/07/05 11:56:42;;;;;;;1.20;1.10;;;30.00;40.10;;;;;;5009679;28;20648;-66
2022/07/05 11:59:27;;;;;;;1.37;1.27;;;30.00;40.40;;;;;;5009982;28;20672;-64
2022/07/05 12:01:55;;;;;;;1.27;1.23;;;30.10;40.10;;;;;;5009280;28;20727;-65
2022/07/05 12:04:27;;;;;;;1.77;1.53;;;30.00;39.90;;;;;;5010022;28;20744;-66
2022/07/05 12:06:56;;;;;;;1.83;1.57;;;29.80;40.00;;;;;;5010422;28;21312;-65
2022/07/05 12:09:25;;;;;;;1.50;1.40;;;29.30;40.50;;;;;;5009278;28;20691;-67